Time;durP1;ratioP1;P1;durP2;ratioP2;P2;SDS_P1;SDS_P2;PMS_P1;PMS_P2;Temp;Humidity;BMP_temperature;BMP_pressure;BME280_temperature;BME280_humidity;BME280_pressure;Samples;Min_cycle;Max_cycle;Signal;HPM_P1;HPM_P2
2022/08/06 00:01:48;;;;;;;2.63;1.00;;;21.00;66.60;;;;;;5014218;28;20060;-77
2022/08/06 00:04:13;;;;;;;2.42;0.90;;;21.00;65.90;;;;;;5030821;28;20446;-77
2022/08/06 00:06:39;;;;;;;3.00;0.90;;;21.00;66.20;;;;;;5034620;28;20032;-77
2022/08/06 00:09:04;;;;;;;5.20;1.10;;;21.00;66.40;;;;;;5035098;28;20025;-77
2022/08/06 00:11:30;;;;;;;3.42;1.10;;;21.00;66.30;;;;;;5034283;28;20034;-77
2022/08/06 00:13:55;;;;;;;2.78;1.27;;;20.90;66.50;;;;;;5034492;28;20025;-78
2022/08/06 00:16:21;;;;;;;3.28;1.00;;;21.00;67.60;;;;;;5035750;28;20029;-77
2022/08/06 00:18:46;;;;;;;2.38;0.88;;;21.00;68.80;;;;;;5036037;28;20100;-77
2022/08/06 00:21:12;;;;;;;3.55;1.10;;;21.00;68.90;;;;;;5035516;28;20036;-77
2022/08/06 00:23:37;;;;;;;3.20;0.95;;;21.00;69.10;;;;;;5034441;28;20474;-77
2022/08/06 00:26:03;;;;;;;3.03;1.00;;;21.00;69.10;;;;;;5035663;28;20037;-78
2022/08/06 00:28:28;;;;;;;3.05;1.10;;;21.00;67.50;;;;;;5034343;28;20367;-77
2022/08/06 00:30:54;;;;;;;1.42;0.93;;;21.00;67.00;;;;;;5035069;28;20037;-78
2022/08/06 00:33:19;;;;;;;4.07;1.35;;;21.00;66.00;;;;;;5034224;28;20541;-79
2022/08/06 00:35:45;;;;;;;2.30;0.93;;;21.00;65.60;;;;;;5035405;28;20033;-79
2022/08/06 00:38:10;;;;;;;2.85;1.00;;;21.00;66.10;;;;;;5035413;28;20021;-79
2022/08/06 00:40:37;;;;;;;3.08;0.95;;;21.00;65.50;;;;;;5033952;28;20075;-78
2022/08/06 00:43:04;;;;;;;1.83;0.88;;;21.00;65.70;;;;;;5035748;28;20029;-77
2022/08/06 00:45:31;;;;;;;2.08;0.90;;;21.00;65.60;;;;;;5035317;28;20025;-78
2022/08/06 00:47:56;;;;;;;3.20;1.10;;;20.90;65.80;;;;;;5035425;28;20033;-77
2022/08/06 00:50:22;;;;;;;3.15;1.00;;;20.90;65.80;;;;;;5035314;28;20385;-77
2022/08/06 00:52:48;;;;;;;4.15;1.00;;;20.90;65.70;;;;;;5034977;28;20029;-78
2022/08/06 00:55:13;;;;;;;2.05;1.00;;;20.90;65.30;;;;;;5033816;28;20013;-77
2022/08/06 00:57:39;;;;;;;1.90;0.90;;;20.90;65.60;;;;;;5033971;28;20021;-77
2022/08/06 01:00:07;;;;;;;3.55;1.10;;;20.90;65.80;;;;;;5034627;28;20043;-78
2022/08/06 01:02:33;;;;;;;2.00;1.00;;;20.90;65.80;;;;;;5017564;28;20069;-77
2022/08/06 01:04:59;;;;;;;2.83;1.20;;;20.90;66.60;;;;;;5035136;28;20461;-77
2022/08/06 01:07:24;;;;;;;3.78;1.00;;;20.90;67.40;;;;;;5033744;28;20029;-78
2022/08/06 01:09:50;;;;;;;2.60;1.20;;;20.90;67.10;;;;;;5033398;28;20026;-77
2022/08/06 01:12:16;;;;;;;3.45;1.08;;;20.90;68.30;;;;;;5034758;28;20013;-78
2022/08/06 01:14:42;;;;;;;2.55;1.10;;;20.90;68.20;;;;;;5034664;28;20025;-77
2022/08/06 01:17:23;;;;;;;2.03;1.10;;;20.90;67.60;;;;;;5034614;28;20064;-78
2022/08/06 01:20:01;;;;;;;3.08;1.15;;;20.90;67.10;;;;;;5016868;28;20025;-77
2022/08/06 01:22:51;;;;;;;2.90;1.10;;;20.80;67.00;;;;;;5027178;28;20028;-79
2022/08/06 01:25:24;;;;;;;;;;;20.80;67.00;;;;;;5035764;28;20440;-78
2022/08/06 01:28:04;;;;;;;3.97;1.10;;;20.80;67.00;;;;;;5013891;28;19970;-79
2022/08/06 01:30:40;;;;;;;1.92;1.10;;;20.80;66.70;;;;;;5021023;28;20018;-79
2022/08/06 01:33:23;;;;;;;2.22;1.00;;;20.80;66.40;;;;;;5026542;28;20026;-78
2022/08/06 01:35:53;;;;;;;2.30;1.10;;;20.80;66.20;;;;;;4997077;28;20563;-79
2022/08/06 01:38:39;;;;;;;4.60;1.42;;;20.80;65.60;;;;;;5034559;28;20021;-78
2022/08/06 01:41:09;;;;;;;2.08;1.00;;;20.80;65.40;;;;;;5034186;28;20080;-79
2022/08/06 01:43:36;;;;;;;2.10;1.00;;;20.80;65.80;;;;;;5029010;28;20086;-79
2022/08/06 01:46:03;;;;;;;2.22;1.20;;;20.80;65.70;;;;;;5027672;28;20022;-77
2022/08/06 01:48:32;;;;;;;2.45;1.00;;;20.80;65.40;;;;;;5039239;28;20033;-78
2022/08/06 01:51:01;;;;;;;3.65;1.20;;;20.80;65.80;;;;;;5034027;28;20029;-79
2022/08/06 01:53:31;;;;;;;2.47;1.00;;;20.80;65.60;;;;;;5016278;28;20045;-79
2022/08/06 01:56:00;;;;;;;3.30;1.25;;;20.70;66.70;;;;;;5033982;28;20022;-76
2022/08/06 01:58:39;;;;;;;1.70;1.00;;;20.80;67.30;;;;;;5033504;28;20072;-77
2022/08/06 02:01:08;;;;;;;2.80;1.10;;;20.80;66.20;;;;;;5028699;28;20036;-78
2022/08/06 02:03:43;;;;;;;3.42;1.05;;;20.70;66.70;;;;;;5033561;28;20076;-78
2022/08/06 02:06:12;;;;;;;1.92;1.10;;;20.80;66.90;;;;;;5034323;28;20021;-78
2022/08/06 02:08:38;;;;;;;4.57;1.20;;;20.80;66.60;;;;;;5033984;28;20549;-77
2022/08/06 02:11:06;;;;;;;2.70;1.20;;;20.80;65.00;;;;;;5016212;28;20133;-77
2022/08/06 02:13:35;;;;;;;2.05;1.10;;;20.80;64.70;;;;;;5033908;28;20029;-76
2022/08/06 02:16:03;;;;;;;3.00;1.10;;;20.80;64.10;;;;;;5034125;28;20022;-78
2022/08/06 02:18:32;;;;;;;2.60;0.90;;;20.80;64.20;;;;;;5032532;28;20028;-78
2022/08/06 02:21:02;;;;;;;3.95;1.10;;;20.80;64.00;;;;;;5033525;28;20482;-78
2022/08/06 02:23:28;;;;;;;3.58;1.08;;;20.70;64.00;;;;;;5015812;28;20036;-78
2022/08/06 02:25:55;;;;;;;1.88;0.95;;;20.70;64.20;;;;;;5033968;28;20397;-77
2022/08/06 02:28:23;;;;;;;3.10;1.02;;;20.70;65.10;;;;;;5015163;28;20441;-75
2022/08/06 02:30:51;;;;;;;3.67;1.20;;;20.70;64.10;;;;;;5032850;28;20689;-77
2022/08/06 02:33:17;;;;;;;2.95;1.20;;;20.70;64.30;;;;;;5033126;28;20045;-77
2022/08/06 02:36:04;;;;;;;2.45;1.10;;;20.70;64.10;;;;;;5028755;28;20105;-79
2022/08/06 02:38:36;;;;;;;2.95;1.10;;;20.70;64.10;;;;;;5032119;28;20029;-79
2022/08/06 02:41:09;;;;;;;2.45;1.20;;;20.70;64.30;;;;;;5032125;28;20025;-79
2022/08/06 02:43:38;;;;;;;4.13;1.10;;;20.60;64.30;;;;;;5033749;28;20029;-79
2022/08/06 02:46:13;;;;;;;3.05;1.10;;;20.60;65.20;;;;;;5033278;28;20033;-78
2022/08/06 02:48:44;;;;;;;3.65;1.20;;;20.70;65.70;;;;;;5014973;28;20025;-79
2022/08/06 02:51:15;;;;;;;2.28;1.10;;;20.70;66.40;;;;;;5032500;28;20053;-77
2022/08/06 02:53:57;;;;;;;3.08;1.20;;;20.70;66.60;;;;;;5032564;28;20116;-77
2022/08/06 02:56:24;;;;;;;2.35;1.20;;;20.70;66.40;;;;;;5032664;28;20026;-78
2022/08/06 02:58:53;;;;;;;3.05;1.10;;;20.70;65.20;;;;;;5015133;28;20022;-77
2022/08/06 03:01:22;;;;;;;2.28;1.20;;;20.70;64.70;;;;;;5032201;28;20382;-75
2022/08/06 03:03:51;;;;;;;3.90;1.10;;;20.60;64.90;;;;;;5032582;28;20440;-78
2022/08/06 03:06:19;;;;;;;3.75;1.10;;;20.60;64.30;;;;;;5014797;28;20482;-77
2022/08/06 03:08:46;;;;;;;2.20;1.00;;;20.60;63.90;;;;;;5014939;28;20030;-77
2022/08/06 03:11:13;;;;;;;3.97;1.30;;;20.60;63.80;;;;;;5032064;28;20030;-77
2022/08/06 03:13:41;;;;;;;3.00;1.10;;;20.60;63.70;;;;;;5032365;28;20025;-76
2022/08/06 03:16:07;;;;;;;3.20;1.00;;;20.50;63.40;;;;;;5032298;28;20029;-77
2022/08/06 03:18:34;;;;;;;2.35;1.13;;;20.60;63.50;;;;;;5032224;28;20105;-77
2022/08/06 03:21:01;;;;;;;3.25;1.27;;;20.50;63.60;;;;;;5014279;28;20037;-76
2022/08/06 03:23:28;;;;;;;3.20;1.40;;;20.50;63.60;;;;;;5032301;28;20037;-78
2022/08/06 03:25:55;;;;;;;3.65;1.13;;;20.50;63.80;;;;;;5014500;28;20121;-76
2022/08/06 03:28:21;;;;;;;3.45;1.38;;;20.50;63.60;;;;;;5014719;28;20095;-76
2022/08/06 03:30:47;;;;;;;2.25;1.00;;;20.50;63.60;;;;;;5031881;28;20498;-76
2022/08/06 03:33:16;;;;;;;2.75;1.10;;;20.50;63.70;;;;;;5032185;28;20095;-76
2022/08/06 03:35:42;;;;;;;4.47;1.13;;;20.50;64.10;;;;;;5032047;28;20084;-78
2022/08/06 03:38:09;;;;;;;2.47;1.10;;;20.50;64.30;;;;;;5032077;28;20032;-76
2022/08/06 03:40:37;;;;;;;2.22;1.08;;;20.50;64.60;;;;;;5015082;28;20045;-76
2022/08/06 03:43:03;;;;;;;3.90;1.10;;;20.50;64.70;;;;;;5035004;28;20120;-76
2022/08/06 03:45:31;;;;;;;3.92;1.38;;;20.50;64.90;;;;;;5036105;28;20490;-77
2022/08/06 03:47:59;;;;;;;2.47;1.10;;;20.50;64.80;;;;;;5018465;28;20030;-76
2022/08/06 03:50:31;;;;;;;2.80;0.90;;;20.50;64.60;;;;;;5034498;28;20163;-76
2022/08/06 03:53:02;;;;;;;2.15;1.00;;;20.50;64.30;;;;;;5018132;28;20026;-77
2022/08/06 03:55:30;;;;;;;;;;;20.50;63.70;;;;;;5018701;28;20024;-76
2022/08/06 03:58:00;;;;;;;2.25;1.02;;;20.50;63.70;;;;;;5018252;28;19909;-77
2022/08/06 04:00:30;;;;;;;2.47;1.10;;;20.50;63.50;;;;;;5035577;28;20053;-77
2022/08/06 04:02:58;;;;;;;1.67;1.00;;;20.50;63.90;;;;;;5035887;28;20508;-76
2022/08/06 04:05:27;;;;;;;2.20;1.10;;;20.50;63.80;;;;;;5035846;28;20406;-76
2022/08/06 04:08:03;;;;;;;2.53;0.90;;;20.50;63.90;;;;;;5035780;28;20033;-76
2022/08/06 04:10:35;;;;;;;1.98;0.88;;;20.50;64.10;;;;;;5017703;28;20128;-76
2022/08/06 04:13:13;;;;;;;2.60;1.13;;;20.50;64.10;;;;;;5035668;28;20379;-76
2022/08/06 04:15:40;;;;;;;2.00;1.00;;;20.50;64.10;;;;;;5017714;28;20030;-73
2022/08/06 04:18:12;;;;;;;3.25;1.35;;;20.40;64.30;;;;;;5038435;28;20056;-77
2022/08/06 04:20:42;;;;;;;3.63;1.10;;;20.40;64.20;;;;;;5035270;28;20028;-76
2022/08/06 04:23:08;;;;;;;2.38;1.00;;;20.40;64.50;;;;;;5035803;28;20052;-77
2022/08/06 04:25:39;;;;;;;2.78;1.10;;;20.40;64.60;;;;;;5017681;28;20025;-78
2022/08/06 04:28:06;;;;;;;4.40;1.10;;;20.40;64.90;;;;;;5035297;28;20040;-78
2022/08/06 04:30:34;;;;;;;3.85;1.10;;;20.40;65.20;;;;;;5017331;28;20264;-77
2022/08/06 04:33:02;;;;;;;2.58;0.90;;;20.50;65.40;;;;;;5035337;28;20021;-77
2022/08/06 04:35:29;;;;;;;2.85;1.02;;;20.50;66.20;;;;;;5040136;28;20047;-77
2022/08/06 04:37:55;;;;;;;2.25;1.20;;;20.50;66.10;;;;;;5053579;28;20032;-78
2022/08/06 04:40:22;;;;;;;4.07;1.17;;;20.50;65.80;;;;;;5044336;28;20104;-77
2022/08/06 04:42:48;;;;;;;2.13;1.10;;;20.60;65.60;;;;;;5017266;28;20074;-78
2022/08/06 04:45:13;;;;;;;3.53;1.35;;;20.50;65.00;;;;;;5035021;28;20071;-78
2022/08/06 04:47:40;;;;;;;2.67;1.27;;;20.50;65.00;;;;;;5017367;28;20025;-76
2022/08/06 04:50:05;;;;;;;2.63;1.00;;;20.50;65.10;;;;;;5034718;28;20022;-77
2022/08/06 04:52:32;;;;;;;3.67;1.10;;;20.50;64.90;;;;;;5033790;28;20033;-78
2022/08/06 04:54:57;;;;;;;3.33;1.00;;;20.50;65.10;;;;;;5017733;28;20609;-77
2022/08/06 04:57:23;;;;;;;3.28;1.00;;;20.40;65.10;;;;;;5018348;28;20035;-78
2022/08/06 04:59:48;;;;;;;3.45;1.27;;;20.50;65.30;;;;;;5034337;28;20087;-78
2022/08/06 05:02:14;;;;;;;4.15;1.48;;;20.50;65.30;;;;;;5034954;28;20028;-77
2022/08/06 05:04:41;;;;;;;3.17;1.17;;;20.50;65.30;;;;;;5034778;28;20032;-77
2022/08/06 05:07:13;;;;;;;2.33;1.10;;;20.50;65.50;;;;;;5033368;28;20026;-77
2022/08/06 05:09:39;;;;;;;3.95;1.42;;;20.50;65.70;;;;;;5033159;28;20030;-76
2022/08/06 05:12:11;;;;;;;2.97;1.05;;;20.40;65.30;;;;;;5034525;28;20029;-77
2022/08/06 05:14:52;;;;;;;4.18;1.27;;;20.40;65.50;;;;;;5016651;28;20033;-76
2022/08/06 05:17:22;;;;;;;2.85;1.20;;;20.50;65.40;;;;;;5033411;28;20025;-77
2022/08/06 05:20:00;;;;;;;3.40;1.20;;;20.50;66.00;;;;;;5034200;28;20030;-76
2022/08/06 05:22:29;;;;;;;2.05;1.13;;;20.50;67.10;;;;;;5034392;28;20026;-77
2022/08/06 05:24:55;;;;;;;3.88;1.48;;;20.50;67.40;;;;;;5034333;28;20108;-77
2022/08/06 05:27:21;;;;;;;4.93;1.42;;;20.60;67.10;;;;;;5016630;28;20021;-77
2022/08/06 05:29:47;;;;;;;4.03;1.50;;;20.60;66.90;;;;;;5033968;28;20391;-77
2022/08/06 05:32:12;;;;;;;5.13;1.50;;;20.60;66.80;;;;;;5016420;28;20506;-77
2022/08/06 05:34:38;;;;;;;3.33;1.35;;;20.60;66.60;;;;;;5033946;28;20040;-76
2022/08/06 05:37:03;;;;;;;4.70;1.30;;;20.60;66.70;;;;;;5016441;28;20028;-77
2022/08/06 05:39:29;;;;;;;4.53;1.33;;;20.60;67.10;;;;;;5015962;28;20029;-78
2022/08/06 05:41:55;;;;;;;3.63;1.30;;;20.60;66.80;;;;;;5033985;28;20036;-77
2022/08/06 05:44:20;;;;;;;4.15;1.35;;;20.50;67.10;;;;;;5033976;28;20395;-78
2022/08/06 05:46:51;;;;;;;3.92;1.30;;;20.50;66.90;;;;;;5033894;28;20036;-76
2022/08/06 05:49:31;;;;;;;2.28;1.20;;;20.50;66.80;;;;;;5034069;28;20036;-76
2022/08/06 05:52:28;;;;;;;4.57;1.30;;;20.50;66.80;;;;;;5033451;28;20079;-77
2022/08/06 05:55:08;;;;;;;4.55;1.50;;;20.50;66.80;;;;;;5016002;28;20314;-77
2022/08/06 05:57:49;;;;;;;3.97;1.40;;;20.50;66.80;;;;;;5024506;28;20079;-77
2022/08/06 06:00:18;;;;;;;6.07;1.60;;;20.50;67.00;;;;;;5019400;28;20523;-77
2022/08/06 06:02:47;;;;;;;2.95;1.58;;;20.50;67.10;;;;;;5052571;28;20032;-77
2022/08/06 06:05:13;;;;;;;3.85;1.42;;;20.50;67.20;;;;;;5052958;28;20040;-77
2022/08/06 06:07:39;;;;;;;2.35;1.30;;;20.50;67.20;;;;;;5035129;28;20095;-78
2022/08/06 06:10:07;;;;;;;2.20;1.23;;;20.50;67.10;;;;;;5034839;28;20017;-76
2022/08/06 06:12:33;;;;;;;3.10;1.50;;;20.60;67.30;;;;;;5034995;28;20504;-77
2022/08/06 06:15:04;;;;;;;7.00;1.67;;;20.60;67.20;;;;;;5052998;28;20063;-77
2022/08/06 06:17:54;;;;;;;5.07;1.57;;;20.60;68.00;;;;;;5034994;28;20079;-77
2022/08/06 06:20:28;;;;;;;3.10;1.33;;;20.70;67.80;;;;;;5052623;28;20017;-77
2022/08/06 06:23:15;;;;;;;3.65;1.50;;;20.70;67.70;;;;;;5035072;28;20090;-77
2022/08/06 06:25:48;;;;;;;4.72;1.60;;;20.70;67.60;;;;;;5052648;28;20029;-76
2022/08/06 06:28:39;;;;;;;4.88;1.58;;;20.70;67.70;;;;;;5052790;28;20029;-77
2022/08/06 06:31:15;;;;;;;3.05;1.70;;;20.70;67.80;;;;;;5052155;28;20032;-75
2022/08/06 06:34:09;;;;;;;4.28;1.58;;;20.70;67.80;;;;;;5052606;28;20033;-78
2022/08/06 06:36:45;;;;;;;2.60;1.40;;;20.70;67.80;;;;;;5012675;28;20033;-78
2022/08/06 06:39:39;;;;;;;3.65;1.60;;;20.70;67.80;;;;;;5012606;28;20033;-77
2022/08/06 06:42:18;;;;;;;3.65;1.73;;;20.70;67.90;;;;;;5012768;28;20057;-77
2022/08/06 06:45:02;;;;;;;5.15;1.77;;;20.70;67.80;;;;;;5016231;28;20124;-77
2022/08/06 06:47:31;;;;;;;3.67;1.40;;;20.70;67.80;;;;;;5032304;28;20083;-77
2022/08/06 06:50:20;;;;;;;5.40;1.60;;;20.70;67.80;;;;;;5031945;28;20494;-78
2022/08/06 06:52:48;;;;;;;2.22;1.30;;;20.80;67.90;;;;;;5031860;28;20375;-77
2022/08/06 06:55:18;;;;;;;3.47;1.27;;;20.80;68.50;;;;;;5031182;28;20021;-76
2022/08/06 06:57:51;;;;;;;2.80;1.33;;;20.80;67.80;;;;;;5032084;28;20030;-77
2022/08/06 07:00:17;;;;;;;5.00;1.48;;;20.80;68.00;;;;;;5030615;28;20021;-77
2022/08/06 07:02:48;;;;;;;5.78;1.50;;;20.90;68.40;;;;;;5031818;28;20078;-76
2022/08/06 07:05:15;;;;;;;3.15;1.27;;;20.90;68.30;;;;;;5032081;28;20021;-77
2022/08/06 07:07:43;;;;;;;3.70;1.30;;;21.00;68.00;;;;;;5031972;28;20478;-77
2022/08/06 07:10:12;;;;;;;2.85;1.30;;;21.00;68.00;;;;;;5031950;28;20478;-78
2022/08/06 07:12:42;;;;;;;2.53;1.30;;;21.10;68.10;;;;;;5014349;28;20630;-77
2022/08/06 07:15:09;;;;;;;3.75;1.50;;;21.10;67.70;;;;;;5032546;28;20021;-78
2022/08/06 07:17:40;;;;;;;2.28;1.20;;;21.10;67.80;;;;;;5030627;28;20075;-78
2022/08/06 07:20:11;;;;;;;3.30;1.10;;;21.10;67.80;;;;;;5031093;28;20021;-77
2022/08/06 07:22:41;;;;;;;3.22;1.30;;;21.20;67.80;;;;;;5030078;28;20091;-76
2022/08/06 07:25:09;;;;;;;2.38;1.10;;;21.20;67.50;;;;;;5011003;28;20029;-77
2022/08/06 07:27:39;;;;;;;2.13;1.10;;;21.20;67.60;;;;;;5031427;28;20025;-75
2022/08/06 07:30:09;;;;;;;2.75;1.30;;;21.20;67.20;;;;;;5014045;28;20589;-76
2022/08/06 07:32:35;;;;;;;3.15;1.20;;;21.20;67.10;;;;;;5031706;28;20026;-76
2022/08/06 07:35:04;;;;;;;2.20;1.20;;;21.30;66.90;;;;;;5014109;28;20096;-76
2022/08/06 07:37:31;;;;;;;1.90;1.20;;;21.20;67.00;;;;;;5031778;28;20025;-77
2022/08/06 07:40:00;;;;;;;3.85;1.15;;;21.20;67.10;;;;;;5031047;28;20562;-76
2022/08/06 07:42:29;;;;;;;2.58;1.15;;;21.30;66.80;;;;;;5031947;28;20471;-76
2022/08/06 07:45:00;;;;;;;3.10;1.10;;;21.30;66.80;;;;;;5013783;28;20030;-75
2022/08/06 07:47:30;;;;;;;2.33;0.93;;;21.30;66.70;;;;;;5013578;28;20410;-76
2022/08/06 07:50:00;;;;;;;2.77;1.00;;;21.30;66.20;;;;;;5013561;28;20056;-76
2022/08/06 07:52:26;;;;;;;3.97;1.40;;;21.40;66.10;;;;;;5013119;28;20308;-75
2022/08/06 07:54:53;;;;;;;2.00;1.17;;;21.40;66.30;;;;;;5031755;28;20029;-76
2022/08/06 07:57:20;;;;;;;1.88;1.13;;;21.40;66.30;;;;;;5026836;28;20053;-73
2022/08/06 07:59:46;;;;;;;2.88;1.30;;;21.40;66.00;;;;;;5030319;28;20022;-75
2022/08/06 08:02:13;;;;;;;2.38;1.30;;;21.50;65.90;;;;;;5029994;28;20044;-76
2022/08/06 08:07:24;;;;;;;3.47;1.35;;;21.60;66.20;;;;;;5030766;28;20076;-75
2022/08/06 08:09:51;;;;;;;3.30;1.23;;;21.50;66.20;;;;;;5030448;28;20022;-76
2022/08/06 08:12:18;;;;;;;3.55;1.20;;;21.60;66.40;;;;;;5029178;28;20032;-76
2022/08/06 08:14:45;;;;;;;3.33;1.15;;;21.50;66.00;;;;;;5012509;28;20061;-76
2022/08/06 08:17:11;;;;;;;4.43;1.33;;;21.50;65.80;;;;;;5013360;28;20028;-75
2022/08/06 08:19:37;;;;;;;2.83;1.20;;;21.60;65.60;;;;;;5012845;28;20022;-75
2022/08/06 08:22:10;;;;;;;2.45;1.10;;;21.50;65.90;;;;;;5013255;28;20117;-75
2022/08/06 08:24:37;;;;;;;2.65;1.10;;;21.60;66.20;;;;;;5030679;28;20152;-75
2022/08/06 08:27:08;;;;;;;1.83;0.90;;;21.60;66.10;;;;;;5014509;28;20038;-75
2022/08/06 08:29:33;;;;;;;4.00;1.27;;;21.60;65.80;;;;;;5034380;28;20021;-75
2022/08/06 08:32:00;;;;;;;2.63;1.20;;;21.60;66.00;;;;;;5034703;28;20383;-76
2022/08/06 08:34:25;;;;;;;2.78;1.30;;;21.70;65.70;;;;;;5034538;28;20022;-75
2022/08/06 08:36:50;;;;;;;2.33;1.10;;;21.70;65.50;;;;;;5035043;28;20032;-76
2022/08/06 08:39:17;;;;;;;2.33;1.10;;;21.70;65.60;;;;;;5034659;28;20080;-76
2022/08/06 08:41:45;;;;;;;1.88;1.00;;;21.70;65.50;;;;;;5034543;28;20014;-75
2022/08/06 08:44:11;;;;;;;1.60;1.05;;;21.70;65.50;;;;;;5034960;28;20117;-75
2022/08/06 08:46:44;;;;;;;2.85;0.98;;;21.70;65.30;;;;;;5019026;28;20064;-79
2022/08/06 08:49:24;;;;;;;2.35;1.15;;;21.70;64.80;;;;;;5016972;28;20032;-76
2022/08/06 08:51:50;;;;;;;;;;;21.80;65.00;;;;;;4999998;28;20032;-76
2022/08/06 08:54:20;;;;;;;2.90;1.40;;;21.90;65.10;;;;;;4996965;28;20004;-75
2022/08/06 08:56:47;;;;;;;2.45;1.02;;;21.90;64.90;;;;;;5014319;28;20022;-75
2022/08/06 08:59:14;;;;;;;3.75;1.20;;;21.90;65.30;;;;;;4997859;28;20395;-76
2022/08/06 09:01:40;;;;;;;2.22;1.20;;;21.90;65.60;;;;;;5033448;28;20440;-75
2022/08/06 09:04:07;;;;;;;2.70;1.20;;;21.80;65.60;;;;;;5016145;28;20025;-75
2022/08/06 09:06:33;;;;;;;2.83;1.10;;;21.80;65.70;;;;;;5034069;28;20049;-76
2022/08/06 09:09:05;;;;;;;3.42;1.08;;;21.70;66.30;;;;;;5034343;28;20038;-76
2022/08/06 09:11:31;;;;;;;3.08;1.38;;;21.70;66.50;;;;;;5033550;28;20021;-76
2022/08/06 09:14:01;;;;;;;4.97;1.25;;;21.70;66.50;;;;;;5033648;28;20037;-75
2022/08/06 09:16:28;;;;;;;3.75;1.20;;;21.70;67.00;;;;;;5033867;28;20017;-75
2022/08/06 09:18:54;;;;;;;3.70;1.23;;;21.70;67.30;;;;;;5033786;28;20030;-75
2022/08/06 09:21:19;;;;;;;6.93;1.50;;;21.70;67.40;;;;;;5033261;28;20041;-75
2022/08/06 09:23:45;;;;;;;7.47;1.40;;;21.80;67.50;;;;;;5033732;28;20427;-76
2022/08/06 09:26:10;;;;;;;10.55;1.88;;;21.80;67.70;;;;;;5034092;28;20036;-75
2022/08/06 09:28:37;;;;;;;7.60;1.50;;;21.80;67.60;;;;;;5033777;28;20536;-75
2022/08/06 09:31:17;;;;;;;6.10;1.92;;;21.90;67.80;;;;;;5032896;28;20534;-76
2022/08/06 09:33:56;;;;;;;5.85;1.40;;;21.90;68.10;;;;;;5016238;28;20029;-75
2022/08/06 09:36:22;;;;;;;6.50;1.48;;;21.90;67.90;;;;;;5033768;28;20115;-76
2022/08/06 09:38:49;;;;;;;3.45;1.30;;;21.90;68.00;;;;;;5033570;28;20398;-76
2022/08/06 09:41:16;;;;;;;4.90;1.40;;;21.90;68.10;;;;;;5015316;28;20025;-75
2022/08/06 09:43:45;;;;;;;11.00;1.70;;;21.90;68.10;;;;;;5033328;28;20056;-75
2022/08/06 09:46:10;;;;;;;4.63;1.20;;;21.90;68.30;;;;;;5032380;28;20029;-75
2022/08/06 09:48:36;;;;;;;8.15;1.20;;;21.90;68.30;;;;;;5033535;28;20084;-76
2022/08/06 09:51:02;;;;;;;7.05;1.70;;;21.90;67.60;;;;;;5015550;28;20034;-75
2022/08/06 09:53:28;;;;;;;7.30;1.20;;;21.90;67.80;;;;;;5032930;28;20044;-76
2022/08/06 09:55:55;;;;;;;4.65;1.23;;;21.90;67.90;;;;;;5031927;28;20116;-75
2022/08/06 09:58:33;;;;;;;4.35;1.20;;;21.90;68.00;;;;;;5031514;28;20030;-75
2022/08/06 10:01:18;;;;;;;6.65;1.40;;;21.90;68.20;;;;;;5032679;28;20393;-75
2022/08/06 10:03:44;;;;;;;3.95;1.00;;;21.90;68.30;;;;;;5032797;28;20056;-75
2022/08/06 10:06:11;;;;;;;8.40;1.67;;;21.80;68.40;;;;;;5032908;28;20029;-76
2022/08/06 10:08:38;;;;;;;10.65;1.85;;;21.80;68.50;;;;;;5032883;28;20022;-75
2022/08/06 10:11:04;;;;;;;6.97;1.30;;;21.70;68.60;;;;;;5028891;28;20898;-76
2022/08/06 10:13:31;;;;;;;5.07;1.40;;;21.80;68.80;;;;;;5032795;28;20033;-74
2022/08/06 10:15:59;;;;;;;6.05;1.08;;;21.80;69.00;;;;;;5032487;28;20120;-75
2022/08/06 10:18:36;;;;;;;7.50;1.70;;;21.80;69.20;;;;;;5032338;28;20032;-75
2022/08/06 10:21:07;;;;;;;5.00;1.20;;;21.80;69.10;;;;;;5031880;28;20022;-75
2022/08/06 10:23:35;;;;;;;5.57;1.40;;;21.90;69.30;;;;;;5031914;28;20026;-74
2022/08/06 10:26:05;;;;;;;5.40;1.20;;;21.90;69.20;;;;;;5032008;28;20108;-75
2022/08/06 10:28:34;;;;;;;4.13;1.02;;;22.00;69.40;;;;;;5031706;28;20021;-75
2022/08/06 10:31:03;;;;;;;3.95;1.10;;;22.00;69.30;;;;;;5030748;28;20513;-74
2022/08/06 10:33:38;;;;;;;7.05;1.40;;;22.00;69.30;;;;;;5034786;28;20040;-75
2022/08/06 10:36:08;;;;;;;2.97;0.95;;;22.00;69.30;;;;;;5045756;28;20028;-75
2022/08/06 10:38:35;;;;;;;6.03;1.33;;;22.00;69.30;;;;;;5027693;28;20032;-78
2022/08/06 10:41:09;;;;;;;4.30;1.10;;;22.00;69.30;;;;;;5051009;28;20017;-78
2022/08/06 10:43:36;;;;;;;3.92;0.95;;;22.00;69.40;;;;;;5031695;28;20036;-75
2022/08/06 10:46:04;;;;;;;2.42;0.77;;;22.00;69.40;;;;;;5015515;28;20025;-75
2022/08/06 10:48:32;;;;;;;4.53;1.08;;;21.90;69.60;;;;;;5033352;28;20052;-75
2022/08/06 10:50:57;;;;;;;3.72;1.13;;;21.90;69.70;;;;;;5030492;28;20033;-75
2022/08/06 10:53:23;;;;;;;5.13;1.35;;;21.90;69.80;;;;;;5031095;28;20052;-75
2022/08/06 10:55:49;;;;;;;5.50;1.20;;;21.90;70.00;;;;;;5031584;28;20406;-76
2022/08/06 10:58:15;;;;;;;7.15;1.30;;;21.90;70.10;;;;;;5031008;28;20108;-76
2022/08/06 11:00:42;;;;;;;7.22;1.38;;;21.90;70.30;;;;;;5013139;28;20032;-76
2022/08/06 11:03:16;;;;;;;5.93;1.38;;;22.00;70.20;;;;;;5031770;28;20061;-75
2022/08/06 11:05:47;;;;;;;5.28;1.33;;;21.90;70.20;;;;;;5031602;28;20033;-74
2022/08/06 11:08:42;;;;;;;5.63;1.40;;;21.90;70.20;;;;;;5013900;28;20029;-74
2022/08/06 11:11:12;;;;;;;8.15;1.50;;;21.90;70.40;;;;;;5013651;28;20032;-75
2022/08/06 11:14:05;;;;;;;6.90;1.43;;;21.80;70.40;;;;;;5031540;28;20022;-75
2022/08/06 11:16:32;;;;;;;4.68;1.10;;;21.80;70.60;;;;;;5013778;28;20022;-76
2022/08/06 11:19:09;;;;;;;6.00;1.20;;;21.80;70.70;;;;;;5013674;28;20397;-74
2022/08/06 11:21:46;;;;;;;5.32;1.10;;;21.80;70.70;;;;;;5031106;28;20401;-75
2022/08/06 11:24:14;;;;;;;4.78;1.08;;;21.90;70.70;;;;;;5031424;28;20021;-75
2022/08/06 11:26:44;;;;;;;4.47;1.10;;;21.90;70.60;;;;;;5013648;28;20406;-75
2022/08/06 11:29:11;;;;;;;4.80;1.05;;;21.90;70.60;;;;;;5031309;28;20029;-75
2022/08/06 11:31:47;;;;;;;5.15;1.05;;;22.00;70.60;;;;;;5030943;28;20022;-75
2022/08/06 11:34:14;;;;;;;4.15;1.00;;;21.90;70.60;;;;;;5031357;28;20017;-75
2022/08/06 11:36:53;;;;;;;4.70;1.10;;;21.90;70.80;;;;;;5031346;28;20700;-75
2022/08/06 11:39:20;;;;;;;4.70;1.20;;;21.90;70.80;;;;;;5031334;28;20025;-80
2022/08/06 11:41:54;;;;;;;2.53;1.10;;;21.90;71.00;;;;;;5013300;28;20017;-74
2022/08/06 11:44:22;;;;;;;8.07;1.38;;;21.90;71.10;;;;;;5031159;28;20426;-75
2022/08/06 11:46:49;;;;;;;4.60;1.05;;;21.90;71.20;;;;;;5013683;28;20029;-75
2022/08/06 11:49:18;;;;;;;4.40;1.10;;;21.80;71.20;;;;;;5014113;28;20316;-77
2022/08/06 11:51:53;;;;;;;4.18;1.17;;;21.80;71.30;;;;;;5031041;28;20032;-75
2022/08/06 11:54:33;;;;;;;4.25;1.08;;;21.80;71.30;;;;;;5031043;28;20533;-75
2022/08/06 11:56:59;;;;;;;3.38;1.00;;;21.80;71.40;;;;;;5031281;28;20029;-75
2022/08/06 11:59:25;;;;;;;2.95;0.93;;;21.80;71.50;;;;;;5031015;28;20071;-75
2022/08/06 12:01:51;;;;;;;4.13;1.00;;;21.80;71.70;;;;;;5014585;28;20029;-76
2022/08/06 12:04:35;;;;;;;3.72;1.10;;;21.80;71.80;;;;;;5035240;28;20025;-75
2022/08/06 12:07:27;;;;;;;3.28;1.00;;;21.80;71.80;;;;;;5017430;28;20029;-75
2022/08/06 12:10:06;;;;;;;3.60;0.90;;;21.80;71.80;;;;;;5034739;28;20359;-75
2022/08/06 12:12:37;;;;;;;2.78;1.00;;;21.80;71.80;;;;;;5017029;28;20501;-75
2022/08/06 12:15:12;;;;;;;4.78;1.20;;;21.80;71.80;;;;;;5035172;28;20390;-75
2022/08/06 12:17:39;;;;;;;3.28;0.90;;;21.80;71.80;;;;;;5016994;28;20026;-75
2022/08/06 12:20:06;;;;;;;4.22;0.98;;;21.80;71.90;;;;;;5016476;28;20022;-75
2022/08/06 12:22:33;;;;;;;3.47;1.00;;;21.80;71.90;;;;;;5034685;28;20036;-75
2022/08/06 12:25:03;;;;;;;2.38;1.00;;;21.80;72.00;;;;;;5034665;28;20463;-76
2022/08/06 12:27:34;;;;;;;3.88;1.05;;;21.80;72.10;;;;;;5034642;28;20022;-75
2022/08/06 12:30:03;;;;;;;5.28;1.23;;;21.80;72.10;;;;;;5016261;28;20379;-75
2022/08/06 12:32:34;;;;;;;4.15;1.33;;;21.80;72.10;;;;;;5034850;28;20060;-74
2022/08/06 12:35:08;;;;;;;4.07;1.00;;;21.80;72.20;;;;;;5034498;28;20033;-74
2022/08/06 12:37:39;;;;;;;2.95;0.80;;;21.80;72.30;;;;;;5034347;28;20029;-75
2022/08/06 12:40:29;;;;;;;3.40;0.85;;;21.80;72.20;;;;;;5034081;28;20025;-75
2022/08/06 12:43:00;;;;;;;2.88;1.45;;;21.80;72.40;;;;;;5034217;28;20018;-76
2022/08/06 12:45:27;;;;;;;;;;;21.80;72.40;;;;;;5034765;28;20029;-75
2022/08/06 12:48:03;;;;;;;2.85;1.00;;;21.80;72.50;;;;;;5016353;28;19905;-75
2022/08/06 12:50:32;;;;;;;2.03;0.88;;;21.70;72.50;;;;;;5016006;28;20193;-74
2022/08/06 12:53:05;;;;;;;2.95;0.98;;;21.70;72.70;;;;;;5033803;28;20411;-74
2022/08/06 12:55:52;;;;;;;1.30;0.90;;;21.70;72.80;;;;;;5034097;28;20017;-75
2022/08/06 12:58:26;;;;;;;1.63;0.80;;;21.70;72.90;;;;;;5033977;28;20021;-75
2022/08/06 13:00:54;;;;;;;2.90;0.90;;;21.70;72.90;;;;;;5033592;28;20083;-75
2022/08/06 13:03:22;;;;;;;2.38;0.90;;;21.70;72.90;;;;;;5033952;28;20032;-74
2022/08/06 13:05:48;;;;;;;2.65;0.80;;;21.70;72.80;;;;;;5016176;28;20502;-74